CheckWX is a tool to help pilots better visualize weather data.  It is not intended as a substitute for an official pre-flight weather briefing.

20:06:06 UTC

KMCW METAR
Mason City Municipal Airport
Mason City, Iowa, USA
Current

13 mins ago

KMCW 231953Z AUTO 05009KT 1 1/2SM BR OVC004 00/00 A2972 RMK AO2 SLP071 T00000000
Observed
Feb-23 @ 19:53 UTC
Wind
  • 050° at 9 KTS
Visibility
1 1/2 SM
Flight Rules
LIFR
Conditions
Mist
Cloud Levels
  • Overcast at 400' AGL
Temperature
C / 32°F
Dewpoint
C / 32°F
Humidity
100%
Altimeter
29.72" Hg
Pressure
1007.1 hPa
Previous

41 mins ago

KMCW 231925Z AUTO 06008KT 1 3/4SM BR OVC004 00/00 A2974 RMK AO2 T00000000
Observed
Feb-23 @ 19:25 UTC
Wind
  • 060° at 8 KTS
Visibility
1 3/4 SM
Flight Rules
LIFR
Conditions
Mist
Cloud Levels
  • Overcast at 400' AGL
Temperature
C / 32°F
Dewpoint
C / 32°F
Humidity
100%
Altimeter
29.74" Hg
Pressure
1007.12 hPa
Previous

55 mins ago

KMCW 231911Z AUTO 07009KT 2SM BR OVC004 00/00 A2975 RMK AO2 T00000000
Observed
Feb-23 @ 19:11 UTC
Wind
  • 070° at 9 KTS
Visibility
2 SM
Flight Rules
LIFR
Conditions
Mist
Cloud Levels
  • Overcast at 400' AGL
Temperature
C / 32°F
Dewpoint
C / 32°F
Humidity
100%
Altimeter
29.75" Hg
Pressure
1007.42 hPa